Time;durP1;ratioP1;P1;durP2;ratioP2;P2;SDS_P1;SDS_P2;PMS_P1;PMS_P2;Temp;Humidity;BMP_temperature;BMP_pressure;BME280_temperature;BME280_humidity;BME280_pressure;Samples;Min_cycle;Max_cycle;Signal;HPM_P1;HPM_P2
2024/02/16 00:00:58;;;;;;;13.52;8.80;;;10.80;99.90;;;;;;5013602;28;20249;-90
2024/02/16 00:03:24;;;;;;;15.60;8.82;;;10.80;99.90;;;;;;5012766;28;20049;-88
2024/02/16 00:05:51;;;;;;;14.10;9.00;;;10.80;99.90;;;;;;5012716;28;20033;-89
2024/02/16 00:08:17;;;;;;;15.40;8.65;;;10.80;99.90;;;;;;5013966;28;20026;-88
2024/02/16 00:10:43;;;;;;;14.45;9.00;;;10.70;99.90;;;;;;5013318;28;20034;-89
2024/02/16 00:13:09;;;;;;;13.52;8.57;;;10.60;99.90;;;;;;5016966;28;20029;-89
2024/02/16 00:15:34;;;;;;;13.35;8.32;;;10.60;99.90;;;;;;5021204;28;20028;-89
2024/02/16 00:18:00;;;;;;;14.00;8.02;;;10.60;99.90;;;;;;5014212;28;20076;-88
2024/02/16 00:20:26;;;;;;;12.48;7.78;;;10.60;99.90;;;;;;5013495;28;20090;-88
2024/02/16 00:22:51;;;;;;;16.60;7.93;;;10.70;99.90;;;;;;5013254;28;20030;-89
2024/02/16 00:25:18;;;;;;;15.13;7.88;;;10.70;99.90;;;;;;5013226;28;20032;-88
2024/02/16 00:27:43;;;;;;;14.38;7.93;;;10.70;99.90;;;;;;5015031;28;20028;-88
2024/02/16 00:30:13;;;;;;;13.20;8.07;;;10.70;99.90;;;;;;5015639;28;20117;-90
2024/02/16 00:32:38;;;;;;;15.27;8.00;;;10.70;99.90;;;;;;5027050;28;20043;-88
2024/02/16 00:35:04;;;;;;;11.65;8.32;;;10.70;99.90;;;;;;5006270;28;20033;-88
2024/02/16 00:37:30;;;;;;;14.40;7.68;;;10.70;99.90;;;;;;5017637;28;20022;-89
2024/02/16 00:39:55;;;;;;;11.38;7.22;;;10.70;99.90;;;;;;5016910;28;20028;-89
2024/02/16 00:42:23;;;;;;;13.55;8.38;;;10.70;99.90;;;;;;5017475;28;20041;-90
2024/02/16 00:44:49;;;;;;;11.75;7.88;;;10.70;99.90;;;;;;5019714;28;20104;-88
2024/02/16 00:47:16;;;;;;;12.50;7.47;;;10.70;99.90;;;;;;5020741;28;20033;-90
2024/02/16 00:49:43;;;;;;;9.73;6.90;;;10.60;99.90;;;;;;5017651;28;20034;-89
2024/02/16 00:52:10;;;;;;;9.60;6.47;;;10.50;99.90;;;;;;5017174;28;20018;-89
2024/02/16 00:54:36;;;;;;;10.65;7.13;;;10.60;99.90;;;;;;5016835;28;20045;-87
2024/02/16 00:57:02;;;;;;;13.23;7.40;;;10.50;99.90;;;;;;4998399;28;20022;-87
2024/02/16 00:59:31;;;;;;;11.98;8.10;;;10.50;99.90;;;;;;5005081;28;20034;-89
2024/02/16 01:01:56;;;;;;;12.98;6.82;;;10.60;99.90;;;;;;5013668;28;20029;-88
2024/02/16 01:04:22;;;;;;;10.90;6.30;;;10.60;99.90;;;;;;5017879;28;20052;-89
2024/02/16 01:06:48;;;;;;;10.73;7.03;;;10.60;99.90;;;;;;5011545;28;20041;-89
2024/02/16 01:09:15;;;;;;;9.77;6.65;;;10.60;99.90;;;;;;5011337;28;20037;-89
2024/02/16 01:11:41;;;;;;;8.98;6.47;;;10.60;99.90;;;;;;5017658;28;20041;-88
2024/02/16 01:14:07;;;;;;;10.55;6.82;;;10.60;99.90;;;;;;5018080;28;20025;-88
2024/02/16 01:16:33;;;;;;;13.02;7.50;;;10.60;99.90;;;;;;5016371;28;20096;-89
2024/02/16 01:18:59;;;;;;;13.48;7.50;;;10.60;99.90;;;;;;5021997;28;20648;-88
2024/02/16 01:21:25;;;;;;;12.35;7.45;;;10.60;99.90;;;;;;5020302;28;20104;-89
2024/02/16 01:23:50;;;;;;;10.60;6.95;;;10.60;99.90;;;;;;5016545;28;20591;-90
2024/02/16 01:26:16;;;;;;;10.30;6.72;;;10.60;99.90;;;;;;5017138;28;20025;-90
2024/02/16 01:28:42;;;;;;;10.65;6.15;;;10.60;99.90;;;;;;5016815;28;20026;-89
2024/02/16 01:31:09;;;;;;;8.02;6.03;;;10.50;99.90;;;;;;5024819;28;20029;-88
2024/02/16 01:33:36;;;;;;;13.00;7.13;;;10.50;99.90;;;;;;5001109;28;20603;-90
2024/02/16 01:36:02;;;;;;;12.40;7.22;;;10.60;99.90;;;;;;5016177;28;20022;-89
2024/02/16 01:38:28;;;;;;;10.75;6.47;;;10.50;99.90;;;;;;4998337;28;20022;-89
2024/02/16 01:40:54;;;;;;;10.25;6.43;;;10.60;99.90;;;;;;5015836;28;20081;-90
2024/02/16 01:43:22;;;;;;;9.20;6.25;;;10.50;99.90;;;;;;5017801;28;20046;-90
2024/02/16 01:45:48;;;;;;;11.63;6.63;;;10.50;99.90;;;;;;5008234;28;20029;-90
2024/02/16 01:48:16;;;;;;;11.23;5.93;;;10.50;99.90;;;;;;5016492;28;20030;-90
2024/02/16 01:50:47;;;;;;;10.00;6.68;;;10.50;99.90;;;;;;5023133;28;20033;-89
2024/02/16 01:53:18;;;;;;;13.20;6.60;;;10.50;99.90;;;;;;5016226;28;20026;-88
2024/02/16 01:55:45;;;;;;;9.93;5.88;;;10.50;99.90;;;;;;5015385;28;20038;-89
2024/02/16 01:58:11;;;;;;;9.32;5.80;;;10.50;99.90;;;;;;5014851;28;20021;-89
2024/02/16 02:00:37;;;;;;;8.52;6.20;;;10.40;99.90;;;;;;5014811;28;20224;-88
2024/02/16 02:03:03;;;;;;;8.90;5.72;;;10.50;99.90;;;;;;5015521;28;20089;-89
2024/02/16 02:05:29;;;;;;;9.13;5.68;;;10.50;99.90;;;;;;5015622;28;20057;-88
2024/02/16 02:07:54;;;;;;;8.20;5.25;;;10.50;99.90;;;;;;5015670;28;20368;-89
2024/02/16 02:10:20;;;;;;;7.80;5.60;;;10.50;99.90;;;;;;5015341;28;20026;-88
2024/02/16 02:12:46;;;;;;;11.38;6.45;;;10.50;99.90;;;;;;5012094;28;20026;-90
2024/02/16 02:15:11;;;;;;;8.70;6.95;;;10.40;99.90;;;;;;5020531;28;20018;-89
2024/02/16 02:17:38;;;;;;;10.23;6.22;;;10.30;99.90;;;;;;5015653;28;20030;-88
2024/02/16 02:20:07;;;;;;;7.57;5.22;;;10.20;99.90;;;;;;4997243;28;20030;-89
2024/02/16 02:22:33;;;;;;;6.53;5.40;;;10.20;99.90;;;;;;5015134;28;20033;-87
2024/02/16 02:24:59;;;;;;;6.75;4.97;;;10.20;99.90;;;;;;5015441;28;20049;-89
2024/02/16 02:27:25;;;;;;;10.48;6.00;;;10.20;99.90;;;;;;5014303;28;20069;-89
2024/02/16 02:29:51;;;;;;;9.35;6.22;;;10.20;99.90;;;;;;5014425;28;20037;-87
2024/02/16 02:32:16;;;;;;;10.07;5.70;;;10.20;99.90;;;;;;5015515;28;20041;-89
2024/02/16 02:34:43;;;;;;;10.05;5.90;;;10.20;99.90;;;;;;5013084;28;20049;-89
2024/02/16 02:37:08;;;;;;;9.40;5.68;;;10.10;99.90;;;;;;5015331;28;20485;-90
2024/02/16 02:39:34;;;;;;;7.97;5.68;;;10.10;99.90;;;;;;5013833;28;20109;-89
2024/02/16 02:42:00;;;;;;;7.72;5.25;;;10.00;99.90;;;;;;5014182;28;20105;-90
2024/02/16 02:44:26;;;;;;;8.32;4.80;;;10.10;99.90;;;;;;5016123;28;20033;-90
2024/02/16 02:46:52;;;;;;;7.88;5.38;;;10.10;99.90;;;;;;5014937;28;20030;-90
2024/02/16 02:49:18;;;;;;;8.50;5.70;;;10.10;99.90;;;;;;4998362;28;20573;-88
2024/02/16 02:51:44;;;;;;;11.38;5.57;;;10.10;99.90;;;;;;5021761;28;20033;-89
2024/02/16 02:54:10;;;;;;;7.90;5.15;;;10.00;99.90;;;;;;5014134;28;20502;-88
2024/02/16 02:56:36;;;;;;;9.30;5.55;;;10.00;99.90;;;;;;5015672;28;20028;-89
2024/02/16 02:59:02;;;;;;;10.63;5.60;;;9.90;99.90;;;;;;5001304;28;20038;-90
2024/02/16 03:01:28;;;;;;;11.45;6.38;;;9.90;99.90;;;;;;5014472;28;20030;-89
2024/02/16 03:03:53;;;;;;;10.05;5.63;;;9.90;99.90;;;;;;5013983;28;20738;-89
2024/02/16 03:06:19;;;;;;;6.43;5.32;;;9.80;99.90;;;;;;5013706;28;20106;-87
2024/02/16 03:08:45;;;;;;;8.95;5.88;;;9.90;99.90;;;;;;5014901;28;20032;-89
2024/02/16 03:11:11;;;;;;;9.23;6.25;;;9.90;99.90;;;;;;5013646;28;20061;-89
2024/02/16 03:13:37;;;;;;;7.70;5.80;;;9.80;99.90;;;;;;5011945;28;20036;-90
2024/02/16 03:16:03;;;;;;;12.23;5.57;;;9.80;99.90;;;;;;5018243;28;20136;-88
2024/02/16 03:18:35;;;;;;;7.53;5.82;;;9.80;99.90;;;;;;5013568;28;20154;-90
2024/02/16 03:21:01;;;;;;;12.18;6.07;;;9.80;99.90;;;;;;5014196;28;20050;-90
2024/02/16 03:23:27;;;;;;;9.50;5.90;;;9.80;99.90;;;;;;5020594;28;20080;-88
2024/02/16 03:25:53;;;;;;;8.38;5.15;;;9.80;99.90;;;;;;5001554;28;20057;-89
2024/02/16 03:28:20;;;;;;;9.07;5.47;;;9.80;99.90;;;;;;4995212;28;20099;-89
2024/02/16 03:30:46;;;;;;;8.90;6.25;;;9.80;99.90;;;;;;5013499;28;20030;-87
2024/02/16 03:33:13;;;;;;;8.52;5.25;;;9.80;99.90;;;;;;5013784;28;20053;-88
2024/02/16 03:35:39;;;;;;;7.95;4.93;;;9.80;99.90;;;;;;5015106;28;20029;-90
2024/02/16 03:38:05;;;;;;;7.90;4.90;;;9.80;99.90;;;;;;5013896;28;20080;-89
2024/02/16 03:40:31;;;;;;;8.50;5.00;;;9.80;99.90;;;;;;5012006;28;20030;-88
2024/02/16 03:42:57;;;;;;;8.73;5.53;;;9.80;99.90;;;;;;5012968;28;20029;-88
2024/02/16 03:45:24;;;;;;;10.30;6.50;;;9.70;99.90;;;;;;5015397;28;20032;-88
2024/02/16 03:47:52;;;;;;;10.27;5.93;;;9.70;99.90;;;;;;5024448;28;20060;-89
2024/02/16 03:50:18;;;;;;;8.82;5.85;;;9.70;99.90;;;;;;5016359;28;20041;-90
2024/02/16 03:52:44;;;;;;;9.07;5.43;;;9.60;99.90;;;;;;5020456;28;20030;-89
2024/02/16 03:55:09;;;;;;;9.85;5.40;;;9.60;99.90;;;;;;5013351;28;20064;-87
2024/02/16 03:57:35;;;;;;;10.35;6.28;;;9.60;99.90;;;;;;5015052;28;20018;-88
2024/02/16 04:00:02;;;;;;;9.95;6.07;;;9.50;99.90;;;;;;5013950;28;20392;-89
2024/02/16 04:02:28;;;;;;;8.90;5.53;;;9.50;99.90;;;;;;5012027;28;20033;-88
2024/02/16 04:04:53;;;;;;;15.02;6.88;;;9.60;99.90;;;;;;5000023;28;20026;-88
2024/02/16 04:07:19;;;;;;;12.10;7.88;;;9.50;99.90;;;;;;5017697;28;20026;-88
2024/02/16 04:09:45;;;;;;;13.18;7.18;;;9.50;99.90;;;;;;5017369;28;20131;-89
2024/02/16 04:12:10;;;;;;;9.88;6.95;;;9.40;99.90;;;;;;5016790;28;20006;-88
2024/02/16 04:14:36;;;;;;;6.95;5.70;;;9.40;99.90;;;;;;5024622;28;20025;-88
2024/02/16 04:17:02;;;;;;;9.73;5.57;;;9.30;99.90;;;;;;5015891;28;20026;-90
2024/02/16 04:19:28;;;;;;;7.25;6.35;;;9.30;99.90;;;;;;5020797;28;20109;-88
2024/02/16 04:21:53;;;;;;;9.82;6.05;;;9.20;99.90;;;;;;5027540;28;20025;-88
2024/02/16 04:24:19;;;;;;;9.75;5.55;;;9.20;99.90;;;;;;5018694;28;20084;-88
2024/02/16 04:26:45;;;;;;;8.65;6.18;;;9.20;99.90;;;;;;5017551;28;20030;-88
2024/02/16 04:29:11;;;;;;;9.55;5.45;;;9.10;99.90;;;;;;5018631;28;20026;-89
2024/02/16 04:31:42;;;;;;;11.10;5.95;;;9.10;99.90;;;;;;5021741;28;20087;-89
2024/02/16 04:34:08;;;;;;;8.77;5.35;;;9.00;99.90;;;;;;5019328;28;20056;-88
2024/02/16 04:36:33;;;;;;;7.82;5.60;;;9.00;99.90;;;;;;5024800;28;20087;-89
2024/02/16 04:38:59;;;;;;;9.50;8.48;;;9.00;99.90;;;;;;5019129;28;20096;-90
2024/02/16 04:41:25;;;;;;;10.57;6.32;;;9.00;99.90;;;;;;5014955;28;20024;-91
2024/02/16 04:43:50;;;;;;;8.63;6.50;;;9.00;99.90;;;;;;4999982;28;20021;-89
2024/02/16 04:46:17;;;;;;;8.50;5.78;;;9.00;99.90;;;;;;5014117;28;20471;-90
2024/02/16 04:48:43;;;;;;;9.60;6.20;;;8.90;99.90;;;;;;5015742;28;20022;-90
2024/02/16 04:51:08;;;;;;;9.55;6.25;;;8.90;99.90;;;;;;5016995;28;20041;-90
2024/02/16 04:53:34;;;;;;;9.07;6.43;;;8.80;99.90;;;;;;5016440;28;20021;-88
2024/02/16 04:56:01;;;;;;;9.18;6.13;;;8.80;99.90;;;;;;5016993;28;20520;-91
2024/02/16 04:58:27;;;;;;;8.65;5.88;;;8.80;99.90;;;;;;5015678;28;20049;-90
2024/02/16 05:00:53;;;;;;;9.00;5.63;;;8.70;99.90;;;;;;5006658;28;20025;-90
2024/02/16 05:03:18;;;;;;;9.85;5.32;;;8.70;99.90;;;;;;5017735;28;20053;-89
2024/02/16 05:05:45;;;;;;;8.63;5.15;;;8.70;99.90;;;;;;4996880;28;20377;-89
2024/02/16 05:08:11;;;;;;;10.40;5.85;;;8.70;99.90;;;;;;5015369;28;20495;-90
2024/02/16 05:10:36;;;;;;;9.13;5.80;;;8.80;99.90;;;;;;5015268;28;20030;-89
2024/02/16 05:13:02;;;;;;;7.18;5.10;;;8.80;99.90;;;;;;5016207;28;20492;-90
2024/02/16 05:15:28;;;;;;;8.73;6.20;;;8.80;99.90;;;;;;5016071;28;20520;-90
2024/02/16 05:17:53;;;;;;;9.98;7.47;;;8.90;99.90;;;;;;5015148;28;20077;-90
2024/02/16 05:20:19;;;;;;;9.38;6.32;;;8.80;99.90;;;;;;5014128;28;20489;-90
2024/02/16 05:22:46;;;;;;;8.32;6.97;;;8.80;99.90;;;;;;5014720;28;20018;-90
2024/02/16 05:25:13;;;;;;;9.80;7.32;;;8.90;99.90;;;;;;5013698;28;20026;-89
2024/02/16 05:27:39;;;;;;;10.48;7.20;;;8.80;99.90;;;;;;5015014;28;20030;-90
2024/02/16 05:30:07;;;;;;;10.30;6.88;;;8.80;99.90;;;;;;5017248;28;20030;-90
2024/02/16 05:32:35;;;;;;;7.85;6.78;;;8.90;99.90;;;;;;5016825;28;20017;-89
2024/02/16 05:35:04;;;;;;;8.07;6.03;;;8.90;99.90;;;;;;5014619;28;20082;-91
2024/02/16 05:37:32;;;;;;;8.35;5.75;;;8.90;99.90;;;;;;5015150;28;20026;-87
2024/02/16 05:40:08;;;;;;;10.40;5.55;;;8.90;99.90;;;;;;5022477;28;20018;-89
2024/02/16 05:42:34;;;;;;;6.93;5.65;;;8.90;99.90;;;;;;5017097;28;20026;-91
2024/02/16 05:44:59;;;;;;;12.50;7.22;;;8.80;99.90;;;;;;5015006;28;20026;-89
2024/02/16 05:47:25;;;;;;;32.83;12.70;;;8.80;99.90;;;;;;5020475;28;20041;-90
2024/02/16 05:49:51;;;;;;;41.65;16.00;;;8.90;99.90;;;;;;5014585;28;20124;-90
2024/02/16 05:52:17;;;;;;;37.38;14.23;;;8.90;99.90;;;;;;5013822;28;20057;-88
2024/02/16 05:54:43;;;;;;;28.13;13.40;;;8.90;99.90;;;;;;4997845;28;20112;-89
2024/02/16 05:57:09;;;;;;;36.65;13.65;;;8.90;99.90;;;;;;5009790;28;20057;-91
2024/02/16 05:59:35;;;;;;;37.67;13.15;;;8.80;99.90;;;;;;4994238;28;20481;-89
2024/02/16 06:02:00;;;;;;;27.23;10.88;;;8.80;99.90;;;;;;5004597;28;20042;-90
2024/02/16 06:04:26;;;;;;;26.08;11.48;;;8.80;99.90;;;;;;5008133;28;20049;-89
2024/02/16 06:06:53;;;;;;;25.58;10.32;;;8.70;99.90;;;;;;5000346;28;20388;-90
2024/02/16 06:09:19;;;;;;;12.40;7.18;;;8.80;99.90;;;;;;4998770;28;20038;-90
2024/02/16 06:11:45;;;;;;;11.25;6.70;;;8.80;99.90;;;;;;5002980;28;20029;-89
2024/02/16 06:14:10;;;;;;;12.77;11.10;;;8.70;99.90;;;;;;5001709;28;20507;-90
2024/02/16 06:16:36;;;;;;;12.30;7.38;;;8.80;99.90;;;;;;4995864;28;20105;-91
2024/02/16 06:19:02;;;;;;;7.43;6.68;;;8.70;99.90;;;;;;5001868;28;20037;-90
2024/02/16 06:21:27;;;;;;;8.40;6.40;;;8.80;99.90;;;;;;5002679;28;20026;-89
2024/02/16 06:23:53;;;;;;;7.28;6.55;;;8.80;99.90;;;;;;5000614;28;20088;-89
2024/02/16 06:26:20;;;;;;;8.20;4.82;;;8.80;99.90;;;;;;4998100;28;20104;-90
2024/02/16 06:28:46;;;;;;;8.00;4.85;;;8.80;99.90;;;;;;5003288;28;20017;-90
2024/02/16 06:31:14;;;;;;;8.15;5.40;;;8.80;99.90;;;;;;4998693;28;20570;-90
2024/02/16 06:33:40;;;;;;;8.45;5.95;;;8.80;99.90;;;;;;5000299;28;20039;-91
2024/02/16 06:36:06;;;;;;;9.77;5.30;;;8.80;99.90;;;;;;5001218;28;20110;-89
2024/02/16 06:38:32;;;;;;;11.82;6.13;;;8.80;99.90;;;;;;4999888;28;20030;-88
2024/02/16 06:40:58;;;;;;;7.47;5.57;;;8.70;99.90;;;;;;5001326;28;20512;-90
2024/02/16 06:43:23;;;;;;;7.47;5.30;;;8.70;99.90;;;;;;5002622;28;20030;-90
2024/02/16 06:45:49;;;;;;;8.15;5.07;;;8.60;99.90;;;;;;4982516;28;20041;-91
2024/02/16 06:48:15;;;;;;;12.77;8.10;;;8.70;99.90;;;;;;5000603;28;21367;-90
2024/02/16 06:50:40;;;;;;;10.65;6.82;;;8.70;99.90;;;;;;4985644;28;20034;-92
2024/02/16 06:53:06;;;;;;;12.57;6.60;;;8.60;99.90;;;;;;5001342;28;20034;-89
2024/02/16 06:55:31;;;;;;;10.38;6.60;;;8.70;99.90;;;;;;5000743;28;21449;-90
2024/02/16 06:57:57;;;;;;;8.90;6.60;;;8.80;99.90;;;;;;5008477;28;20034;-88
2024/02/16 07:00:23;;;;;;;8.98;5.88;;;8.80;99.90;;;;;;5012640;28;20129;-89
2024/02/16 07:02:48;;;;;;;12.25;5.65;;;8.80;99.90;;;;;;5012993;28;20079;-89
2024/02/16 07:05:15;;;;;;;10.52;6.18;;;8.90;99.90;;;;;;5022995;28;20030;-90
2024/02/16 07:07:41;;;;;;;9.75;6.50;;;8.90;99.90;;;;;;5015237;28;20034;-89
2024/02/16 07:10:08;;;;;;;8.18;6.43;;;8.90;99.90;;;;;;5019881;28;20034;-89
2024/02/16 07:12:33;;;;;;;10.93;7.10;;;9.00;99.90;;;;;;5008303;28;20062;-90
2024/02/16 07:15:02;;;;;;;8.90;6.28;;;9.00;99.90;;;;;;5022747;28;20404;-88
2024/02/16 07:17:28;;;;;;;8.77;6.43;;;9.00;99.90;;;;;;5013740;28;20048;-91
2024/02/16 07:19:53;;;;;;;11.63;6.63;;;9.10;99.90;;;;;;5014167;28;20404;-89
2024/02/16 07:22:19;;;;;;;9.82;6.05;;;9.30;99.90;;;;;;5021417;28;20108;-89
2024/02/16 07:24:44;;;;;;;10.23;6.05;;;9.30;99.90;;;;;;5020287;28;20044;-90
2024/02/16 07:27:10;;;;;;;8.60;6.35;;;9.30;99.90;;;;;;5019244;28;20026;-91
2024/02/16 07:29:38;;;;;;;13.63;6.82;;;9.40;99.90;;;;;;5021578;28;20025;-90
2024/02/16 07:32:04;;;;;;;9.15;5.28;;;9.40;99.90;;;;;;5014056;28;20033;-88
2024/02/16 07:34:29;;;;;;;8.80;5.90;;;9.40;99.90;;;;;;5021250;28;20033;-88
2024/02/16 07:36:55;;;;;;;10.57;5.82;;;9.50;99.90;;;;;;5018317;28;20021;-91
2024/02/16 07:39:23;;;;;;;10.50;5.85;;;9.50;99.90;;;;;;5018391;28;20366;-88
2024/02/16 07:41:49;;;;;;;13.63;6.38;;;9.60;99.90;;;;;;5012828;28;20033;-90
2024/02/16 07:44:14;;;;;;;12.60;6.35;;;9.70;99.90;;;;;;5018998;28;20022;-90
2024/02/16 07:46:43;;;;;;;11.45;5.57;;;9.60;99.90;;;;;;5017398;28;20574;-88
2024/02/16 07:49:10;;;;;;;8.25;5.90;;;9.60;99.90;;;;;;5017217;28;20033;-89
2024/02/16 07:51:37;;;;;;;10.15;6.20;;;9.60;99.90;;;;;;5017655;28;20017;-90
2024/02/16 07:54:03;;;;;;;11.25;5.68;;;9.60;99.90;;;;;;5017376;28;20026;-88
2024/02/16 07:56:30;;;;;;;10.73;6.00;;;9.60;99.90;;;;;;5024524;28;20030;-90
2024/02/16 07:58:56;;;;;;;10.00;6.18;;;9.70;99.90;;;;;;5008181;28;20045;-90
2024/02/16 08:01:21;;;;;;;15.77;6.43;;;9.80;99.90;;;;;;5017057;28;20484;-90
2024/02/16 08:03:48;;;;;;;9.07;5.70;;;9.90;99.90;;;;;;5005399;28;20025;-88
2024/02/16 08:06:14;;;;;;;11.10;5.38;;;9.90;99.90;;;;;;5021544;28;20018;-89
2024/02/16 08:08:39;;;;;;;10.48;7.60;;;9.90;99.90;;;;;;5017300;28;20017;-91
2024/02/16 08:11:05;;;;;;;9.05;5.72;;;9.90;99.90;;;;;;5016851;28;20507;-89
2024/02/16 08:13:31;;;;;;;11.43;7.28;;;10.00;99.90;;;;;;5011386;28;20072;-89
2024/02/16 08:15:57;;;;;;;9.23;6.32;;;10.10;99.90;;;;;;5016745;28;20030;-89
2024/02/16 08:18:22;;;;;;;11.05;5.72;;;10.10;99.90;;;;;;5018072;28;20566;-88
2024/02/16 08:20:48;;;;;;;12.05;7.30;;;10.20;99.90;;;;;;4999222;28;20086;-91
2024/02/16 08:23:14;;;;;;;14.65;7.15;;;10.30;99.90;;;;;;5025510;28;20375;-89
2024/02/16 08:25:39;;;;;;;10.80;6.22;;;10.30;99.90;;;;;;5017312;28;20025;-89
2024/02/16 08:28:05;;;;;;;10.05;7.22;;;10.30;99.90;;;;;;5016148;28;20100;-89
2024/02/16 08:30:31;;;;;;;10.27;7.47;;;10.40;99.90;;;;;;4998870;28;20037;-89
2024/02/16 08:32:58;;;;;;;11.88;6.00;;;10.50;99.90;;;;;;5015931;28;20029;-89
2024/02/16 08:35:24;;;;;;;8.90;5.40;;;10.40;99.90;;;;;;5016381;28;20381;-89
2024/02/16 08:37:49;;;;;;;10.73;6.50;;;10.40;99.90;;;;;;5016226;28;20022;-90
2024/02/16 08:40:15;;;;;;;12.02;6.70;;;10.50;99.90;;;;;;5022981;28;20080;-90
2024/02/16 08:42:44;;;;;;;13.52;6.43;;;10.60;99.90;;;;;;5015761;28;20412;-89
2024/02/16 08:45:10;;;;;;;10.05;7.13;;;10.70;99.90;;;;;;5016493;28;20030;-90
2024/02/16 08:47:35;;;;;;;12.77;7.57;;;10.70;99.90;;;;;;5016061;28;20030;-89
2024/02/16 08:50:01;;;;;;;15.35;7.85;;;10.80;99.90;;;;;;5017619;28;20443;-90
2024/02/16 08:52:27;;;;;;;15.50;7.93;;;10.80;99.90;;;;;;4997211;28;20334;-91
2024/02/16 08:54:52;;;;;;;15.48;8.63;;;10.90;99.90;;;;;;4999086;28;20113;-89
2024/02/16 08:57:18;;;;;;;15.82;9.45;;;11.00;99.90;;;;;;5017491;28;20025;-88
2024/02/16 08:59:46;;;;;;;12.48;8.10;;;11.00;99.90;;;;;;5017407;28;20048;-88
2024/02/16 09:02:11;;;;;;;13.60;8.18;;;11.10;99.90;;;;;;5016166;28;20033;-87
2024/02/16 09:04:37;;;;;;;12.05;8.32;;;11.10;99.90;;;;;;5016431;28;20030;-90
2024/02/16 09:07:02;;;;;;;11.45;8.73;;;11.20;99.50;;;;;;5017360;28;20049;-88
2024/02/16 09:09:28;;;;;;;13.77;9.05;;;11.30;99.20;;;;;;5015393;28;20046;-89
2024/02/16 09:11:54;;;;;;;13.20;7.97;;;11.40;99.30;;;;;;5020568;28;20539;-89
2024/02/16 09:14:19;;;;;;;14.68;8.63;;;11.40;98.60;;;;;;5020637;28;20129;-89
2024/02/16 09:16:48;;;;;;;15.25;8.75;;;11.50;98.80;;;;;;5027690;28;20054;-88
2024/02/16 09:19:13;;;;;;;12.40;7.95;;;11.60;98.70;;;;;;5015300;28;20056;-90
2024/02/16 09:21:39;;;;;;;9.63;7.22;;;11.60;97.50;;;;;;5015744;28;20484;-89
2024/02/16 09:24:10;;;;;;;14.68;8.82;;;11.60;98.80;;;;;;5024523;28;20022;-90
2024/02/16 09:26:36;;;;;;;14.75;9.13;;;11.70;97.20;;;;;;5017705;28;20619;-88
2024/02/16 09:29:02;;;;;;;15.30;9.07;;;11.80;96.50;;;;;;5017077;28;20024;-89
2024/02/16 09:31:27;;;;;;;13.45;8.00;;;11.90;95.80;;;;;;5016045;28;20014;-89
2024/02/16 09:33:53;;;;;;;16.90;9.35;;;12.00;96.50;;;;;;5017358;28;20084;-90
2024/02/16 09:36:19;;;;;;;17.27;9.00;;;12.00;95.40;;;;;;5016254;28;20117;-87
2024/02/16 09:38:44;;;;;;;14.27;9.02;;;12.20;96.20;;;;;;5000116;28;20408;-89
2024/02/16 09:41:11;;;;;;;12.88;8.43;;;12.30;94.50;;;;;;5019142;28;20024;-88
2024/02/16 09:43:39;;;;;;;11.52;9.70;;;12.30;95.00;;;;;;5016073;28;20032;-91
2024/02/16 09:46:05;;;;;;;15.32;8.55;;;12.30;95.00;;;;;;5014373;28;20033;-90
2024/02/16 09:48:31;;;;;;;12.50;7.88;;;12.50;94.10;;;;;;5016365;28;20040;-90
2024/02/16 09:50:59;;;;;;;13.68;7.50;;;12.70;92.60;;;;;;4998351;28;20423;-89
2024/02/16 09:53:26;;;;;;;15.20;8.85;;;12.70;91.40;;;;;;5016640;28;20527;-89
2024/02/16 09:55:52;;;;;;;16.20;7.85;;;12.80;92.10;;;;;;5015960;28;20108;-90
2024/02/16 09:58:18;;;;;;;13.25;8.30;;;12.70;91.70;;;;;;5014836;28;20033;-91
2024/02/16 10:00:54;;;;;;;12.90;7.28;;;12.90;91.70;;;;;;5014624;28;20113;-88
2024/02/16 10:03:30;;;;;;;13.48;7.55;;;13.00;90.70;;;;;;5016369;28;20068;-90
2024/02/16 10:06:06;;;;;;;15.63;7.90;;;13.00;90.40;;;;;;5014715;28;20029;-89
2024/02/16 10:08:34;;;;;;;10.57;7.80;;;13.10;90.60;;;;;;4996422;28;20113;-88
2024/02/16 10:11:06;;;;;;;14.77;8.15;;;13.30;90.70;;;;;;5024667;28;20038;-89
2024/02/16 10:13:32;;;;;;;13.60;7.75;;;13.30;89.70;;;;;;5021178;28;20060;-90
2024/02/16 10:16:09;;;;;;;9.98;6.75;;;13.40;88.60;;;;;;5026561;28;20370;-90
2024/02/16 10:18:38;;;;;;;9.10;5.95;;;13.50;86.70;;;;;;5015990;28;20033;-89
2024/02/16 10:21:04;;;;;;;12.63;6.05;;;13.60;85.70;;;;;;5023646;28;20022;-91
2024/02/16 10:23:31;;;;;;;13.23;6.90;;;13.60;85.70;;;;;;5023025;28;20530;-88
2024/02/16 10:25:59;;;;;;;10.48;5.28;;;13.70;85.50;;;;;;5013989;28;20018;-89
2024/02/16 10:28:28;;;;;;;9.20;5.65;;;13.80;84.30;;;;;;5014419;28;20033;-90
2024/02/16 10:30:59;;;;;;;7.28;4.85;;;13.80;84.70;;;;;;5014470;28;20025;-90
2024/02/16 10:33:27;;;;;;;6.28;4.60;;;13.80;80.00;;;;;;5014942;28;20384;-90
2024/02/16 10:35:56;;;;;;;8.35;4.22;;;13.90;80.90;;;;;;5014093;28;20093;-88
2024/02/16 10:38:22;;;;;;;6.88;3.90;;;14.00;79.10;;;;;;5015668;28;20366;-89
2024/02/16 10:40:50;;;;;;;5.53;3.60;;;14.20;77.70;;;;;;5014876;28;20033;-89
2024/02/16 10:43:17;;;;;;;6.47;3.40;;;14.40;77.00;;;;;;5015814;28;20116;-89
2024/02/16 10:45:47;;;;;;;7.70;3.50;;;14.60;76.90;;;;;;5015039;28;20086;-89
2024/02/16 10:48:15;;;;;;;9.55;3.38;;;14.90;75.80;;;;;;5014059;28;20026;-90
2024/02/16 10:50:41;;;;;;;6.28;3.22;;;15.20;74.20;;;;;;5014686;28;20373;-89
2024/02/16 10:53:19;;;;;;;7.18;3.50;;;15.30;72.90;;;;;;5013858;28;20049;-89
2024/02/16 10:55:45;;;;;;;6.28;4.97;;;15.70;73.70;;;;;;5015260;28;20085;-89
2024/02/16 10:58:12;;;;;;;8.63;4.13;;;15.80;70.30;;;;;;4993204;28;20082;-89
2024/02/16 11:00:52;;;;;;;7.93;3.60;;;15.80;71.10;;;;;;5012598;28;20126;-89
2024/02/16 11:03:25;;;;;;;6.55;3.08;;;15.70;71.10;;;;;;4998375;28;20167;-90
2024/02/16 11:05:52;;;;;;;7.65;3.55;;;15.80;71.60;;;;;;5007316;28;20477;-88
2024/02/16 11:08:23;;;;;;;6.72;4.05;;;16.00;70.80;;;;;;5014570;28;20036;-88
2024/02/16 11:10:56;;;;;;;7.90;3.60;;;16.20;72.20;;;;;;5009842;28;20407;-90
2024/02/16 11:13:26;;;;;;;8.90;3.15;;;16.40;69.50;;;;;;5013380;28;20112;-91
2024/02/16 11:16:03;;;;;;;8.05;4.25;;;16.50;69.40;;;;;;5024372;28;20034;-89
2024/02/16 11:18:30;;;;;;;6.38;3.22;;;16.50;66.50;;;;;;5017315;28;20030;-90
2024/02/16 11:20:55;;;;;;;6.57;2.83;;;16.60;67.70;;;;;;5015157;28;20029;-90
2024/02/16 11:23:31;;;;;;;6.82;2.83;;;17.10;67.40;;;;;;5016613;28;20033;-90
2024/02/16 11:26:04;;;;;;;7.88;3.00;;;17.20;65.80;;;;;;5014846;28;20052;-90
2024/02/16 11:28:34;;;;;;;6.38;3.08;;;17.10;65.50;;;;;;5014993;28;20028;-91
2024/02/16 11:31:01;;;;;;;9.45;3.97;;;17.10;65.80;;;;;;5010517;28;20539;-91
2024/02/16 11:33:27;;;;;;;7.63;3.33;;;17.10;64.60;;;;;;5015987;28;20022;-89
2024/02/16 11:35:57;;;;;;;5.63;2.50;;;17.30;64.20;;;;;;5024660;28;20033;-90
2024/02/16 11:38:24;;;;;;;9.20;3.22;;;17.50;63.90;;;;;;5015446;28;20021;-89
2024/02/16 11:40:57;;;;;;;8.65;3.10;;;17.60;63.90;;;;;;4999670;28;20032;-89
2024/02/16 11:43:24;;;;;;;4.90;3.05;;;17.60;63.60;;;;;;5014818;28;20082;-89
2024/02/16 11:45:50;;;;;;;6.85;3.33;;;17.80;64.30;;;;;;5014870;28;20041;-89
2024/02/16 11:48:34;;;;;;;6.85;3.55;;;17.60;62.90;;;;;;5016141;28;20026;-90
2024/02/16 11:51:01;;;;;;;6.22;3.40;;;17.90;63.00;;;;;;5015317;28;20057;-90
2024/02/16 11:53:31;;;;;;;5.53;2.80;;;17.80;64.10;;;;;;5015481;28;20445;-90
2024/02/16 11:55:57;;;;;;;6.80;3.13;;;18.00;63.00;;;;;;5014660;28;20402;-89
2024/02/16 11:58:24;;;;;;;8.57;3.08;;;18.00;64.40;;;;;;5014865;28;20046;-88
2024/02/16 12:00:51;;;;;;;10.43;2.40;;;17.90;64.00;;;;;;5015368;28;20056;-89
2024/02/16 12:03:23;;;;;;;5.72;2.72;;;17.80;63.40;;;;;;5014769;28;20030;-89
2024/02/16 12:05:55;;;;;;;8.48;3.10;;;17.60;64.20;;;;;;5006377;28;20038;-90
2024/02/16 12:08:21;;;;;;;6.72;2.67;;;17.40;65.30;;;;;;4996869;28;20022;-92
2024/02/16 12:10:52;;;;;;;8.18;2.72;;;17.20;66.30;;;;;;5011201;28;20129;-87
2024/02/16 12:13:18;;;;;;;5.05;2.58;;;17.10;67.90;;;;;;5010999;28;20564;-90
2024/02/16 12:15:49;;;;;;;4.75;2.63;;;17.10;68.60;;;;;;4996760;28;20038;-90
2024/02/16 12:18:25;;;;;;;3.75;2.58;;;17.20;68.10;;;;;;5010382;28;20393;-90
2024/02/16 12:21:06;;;;;;;6.07;2.85;;;17.20;67.90;;;;;;4994299;28;20022;-88
2024/02/16 12:23:33;;;;;;;6.75;2.85;;;17.30;67.20;;;;;;5012292;28;20610;-90
2024/02/16 12:26:02;;;;;;;5.35;2.58;;;17.20;67.20;;;;;;5021531;28;20515;-89
2024/02/16 12:28:33;;;;;;;9.02;2.67;;;17.20;67.40;;;;;;5016701;28;20093;-88
2024/02/16 12:30:59;;;;;;;4.75;2.33;;;17.30;67.30;;;;;;5020797;28;20373;-89
2024/02/16 12:33:25;;;;;;;4.57;2.22;;;17.20;67.70;;;;;;5027043;28;20026;-89
2024/02/16 12:35:51;;;;;;;6.70;2.55;;;17.00;68.40;;;;;;5015413;28;20159;-87
2024/02/16 12:38:19;;;;;;;7.80;2.00;;;17.00;69.40;;;;;;5019019;28;20029;-89
2024/02/16 12:40:48;;;;;;;5.45;1.88;;;17.10;68.40;;;;;;5016322;28;20523;-90
2024/02/16 12:43:14;;;;;;;4.22;2.78;;;17.20;68.40;;;;;;5016899;28;20029;-89